Time;durP1;ratioP1;P1;durP2;ratioP2;P2;SDS_P1;SDS_P2;PMS_P1;PMS_P2;Temp;Humidity;BMP_temperature;BMP_pressure;BME280_temperature;BME280_humidity;BME280_pressure;Samples;Min_cycle;Max_cycle;Signal;HPM_P1;HPM_P2
2023/11/29 00:01:50;;;;;;;8.53;4.13;;;2.60;99.90;;;;;;4917206;29;20127;-73
2023/11/29 00:04:15;;;;;;;4.77;3.43;;;2.60;99.90;;;;;;4917579;29;20095;-73
2023/11/29 00:06:41;;;;;;;9.00;3.70;;;2.60;99.90;;;;;;4917657;29;20112;-73
2023/11/29 00:09:06;;;;;;;4.77;3.40;;;2.60;99.90;;;;;;4933715;29;20563;-73
2023/11/29 00:11:32;;;;;;;7.03;4.20;;;2.60;99.90;;;;;;4934898;29;20040;-73
2023/11/29 00:13:58;;;;;;;6.33;3.93;;;2.60;99.90;;;;;;4937466;29;20098;-73
2023/11/29 00:16:23;;;;;;;7.87;3.57;;;2.60;99.90;;;;;;4920724;29;20035;-73
2023/11/29 00:18:49;;;;;;;6.20;3.77;;;2.50;99.90;;;;;;4920438;29;20039;-74
2023/11/29 00:21:15;;;;;;;6.77;3.80;;;2.50;99.90;;;;;;4920340;29;20039;-73
2023/11/29 00:23:41;;;;;;;10.93;5.20;;;2.50;99.90;;;;;;4920817;29;20040;-73
2023/11/29 00:26:06;;;;;;;10.83;6.43;;;2.50;99.90;;;;;;4920146;29;20036;-73
2023/11/29 00:28:32;;;;;;;10.20;5.47;;;2.40;99.90;;;;;;4936825;29;20055;-73
2023/11/29 00:30:58;;;;;;;8.27;4.80;;;2.50;99.90;;;;;;4929768;29;20488;-73
2023/11/29 00:33:23;;;;;;;8.77;4.50;;;2.50;99.90;;;;;;4920690;29;20122;-73
2023/11/29 00:35:49;;;;;;;7.10;4.10;;;2.50;99.90;;;;;;4920003;29;20034;-74
2023/11/29 00:38:14;;;;;;;8.83;4.10;;;2.50;99.90;;;;;;4920651;29;20023;-72
2023/11/29 00:40:40;;;;;;;6.93;4.10;;;2.50;99.90;;;;;;4920337;29;20031;-73
2023/11/29 00:43:05;;;;;;;9.37;4.00;;;2.50;99.90;;;;;;4919951;29;20060;-74
2023/11/29 00:45:31;;;;;;;7.30;4.70;;;2.50;99.90;;;;;;4937600;29;20035;-73
2023/11/29 00:47:56;;;;;;;7.63;4.53;;;2.50;99.90;;;;;;4937044;29;20028;-73
2023/11/29 00:50:22;;;;;;;6.03;3.90;;;2.50;99.90;;;;;;4920504;29;20036;-73
2023/11/29 00:52:47;;;;;;;7.97;4.47;;;2.40;99.90;;;;;;4919997;29;20031;-76
2023/11/29 00:55:14;;;;;;;5.93;3.90;;;2.40;99.90;;;;;;4937343;29;20087;-73
2023/11/29 00:57:39;;;;;;;7.93;4.17;;;2.30;99.90;;;;;;4920368;29;20031;-73
2023/11/29 01:00:06;;;;;;;5.13;3.50;;;2.30;99.90;;;;;;4936931;29;20032;-73
2023/11/29 01:02:31;;;;;;;6.67;4.47;;;2.30;99.90;;;;;;4937253;29;20094;-73
2023/11/29 01:05:05;;;;;;;5.80;3.90;;;2.20;99.90;;;;;;4936879;29;20040;-74
2023/11/29 01:07:31;;;;;;;9.07;4.53;;;2.20;99.90;;;;;;4885441;29;20055;-74
2023/11/29 01:09:57;;;;;;;8.17;4.53;;;2.20;99.90;;;;;;4891719;29;20044;-74
2023/11/29 01:12:22;;;;;;;6.90;4.13;;;2.20;99.90;;;;;;4907470;29;20031;-74
2023/11/29 01:14:48;;;;;;;6.70;4.07;;;2.20;99.90;;;;;;4906157;29;20033;-83
2023/11/29 01:17:14;;;;;;;6.93;4.37;;;2.20;99.90;;;;;;4903313;29;20056;-74
2023/11/29 01:19:39;;;;;;;8.33;4.53;;;2.20;99.90;;;;;;4897246;29;20032;-73
2023/11/29 01:22:05;;;;;;;7.63;4.57;;;2.10;99.90;;;;;;4899539;29;20052;-74
2023/11/29 01:24:31;;;;;;;8.77;4.60;;;2.10;99.90;;;;;;4899311;29;20513;-74
2023/11/29 01:26:57;;;;;;;6.47;4.13;;;2.10;99.90;;;;;;4909860;29;20032;-74
2023/11/29 01:29:23;;;;;;;8.47;4.80;;;2.10;99.90;;;;;;4906181;29;20470;-74
2023/11/29 01:31:48;;;;;;;6.97;4.17;;;2.00;99.90;;;;;;4891197;29;20080;-73
2023/11/29 01:34:14;;;;;;;7.37;3.93;;;2.00;99.90;;;;;;4889336;29;20064;-74
2023/11/29 01:36:43;;;;;;;6.43;3.93;;;2.00;99.90;;;;;;4890534;29;20030;-74
2023/11/29 01:39:13;;;;;;;7.53;4.50;;;2.00;99.90;;;;;;4888223;29;20052;-74
2023/11/29 01:41:39;;;;;;;9.40;4.40;;;2.00;99.90;;;;;;4905513;29;20394;-74
2023/11/29 01:44:04;;;;;;;6.37;4.33;;;1.90;99.90;;;;;;4889397;29;20024;-74
2023/11/29 01:46:30;;;;;;;8.07;4.33;;;1.90;99.90;;;;;;4899924;29;20578;-74
2023/11/29 01:48:56;;;;;;;7.47;3.93;;;1.90;99.90;;;;;;4880749;29;20040;-74
2023/11/29 01:51:21;;;;;;;8.70;4.80;;;1.90;99.90;;;;;;4896740;29;20622;-73
2023/11/29 01:53:49;;;;;;;9.10;4.50;;;1.80;99.90;;;;;;4880995;29;20521;-73
2023/11/29 01:56:16;;;;;;;7.80;4.23;;;1.90;99.90;;;;;;4880511;29;20024;-73
2023/11/29 01:58:42;;;;;;;7.27;4.13;;;1.80;99.90;;;;;;4914689;29;20043;-73
2023/11/29 02:01:07;;;;;;;7.13;4.10;;;1.90;99.90;;;;;;4900119;29;20389;-74
2023/11/29 02:03:33;;;;;;;8.03;4.13;;;1.80;99.90;;;;;;4900919;29;20032;-73
2023/11/29 02:05:59;;;;;;;9.63;4.60;;;1.80;99.90;;;;;;4900288;29;20467;-73
2023/11/29 02:08:26;;;;;;;7.03;4.37;;;1.90;99.90;;;;;;4900614;29;20024;-74
2023/11/29 02:10:51;;;;;;;6.83;4.10;;;1.90;99.90;;;;;;4900267;29;20099;-80
2023/11/29 02:13:17;;;;;;;8.97;4.30;;;1.80;99.90;;;;;;4900685;29;20028;-73
2023/11/29 02:15:43;;;;;;;7.57;4.33;;;1.90;99.90;;;;;;4900523;29;20028;-73
2023/11/29 02:18:08;;;;;;;7.73;4.60;;;1.90;99.90;;;;;;4916981;29;20032;-75
2023/11/29 02:20:35;;;;;;;8.77;4.50;;;1.90;99.90;;;;;;4900227;29;20032;-74
2023/11/29 02:23:28;;;;;;;6.77;4.20;;;1.90;99.90;;;;;;4924543;29;20070;-74
2023/11/29 02:25:54;;;;;;;7.97;4.40;;;2.00;99.90;;;;;;4935896;29;20024;-74
2023/11/29 02:28:20;;;;;;;8.40;4.37;;;2.00;99.90;;;;;;4935154;29;20480;-73
2023/11/29 02:30:45;;;;;;;8.77;4.77;;;2.00;99.90;;;;;;4936188;29;20433;-73
2023/11/29 02:33:11;;;;;;;7.07;4.40;;;2.00;99.90;;;;;;4934433;29;20028;-73
2023/11/29 02:35:37;;;;;;;7.87;4.37;;;2.00;99.90;;;;;;4934767;29;20028;-73
2023/11/29 02:38:02;;;;;;;8.70;4.77;;;2.00;99.90;;;;;;4934383;29;20035;-74
2023/11/29 02:40:28;;;;;;;10.13;5.00;;;2.10;99.90;;;;;;4934747;29;20492;-73
2023/11/29 02:42:53;;;;;;;8.63;4.60;;;2.10;99.90;;;;;;4934329;29;20110;-80
2023/11/29 02:45:19;;;;;;;8.53;4.33;;;2.20;99.90;;;;;;4935956;29;20028;-73
2023/11/29 02:47:45;;;;;;;10.63;5.20;;;2.20;99.90;;;;;;4934879;29;20118;-73
2023/11/29 02:50:10;;;;;;;9.00;4.57;;;2.30;99.90;;;;;;4935404;29;20024;-74
2023/11/29 02:52:36;;;;;;;7.77;4.43;;;2.30;99.90;;;;;;4935851;29;20042;-74
2023/11/29 02:55:01;;;;;;;8.70;4.83;;;2.30;99.90;;;;;;4934252;29;20063;-74
2023/11/29 02:57:27;;;;;;;11.50;5.27;;;2.30;99.90;;;;;;4934592;29;20492;-73
2023/11/29 02:59:52;;;;;;;8.50;4.43;;;2.30;99.90;;;;;;4946250;29;20034;-73
2023/11/29 03:02:18;;;;;;;8.93;4.47;;;2.30;99.90;;;;;;4953064;29;20027;-73
2023/11/29 03:04:43;;;;;;;9.70;4.80;;;2.30;99.90;;;;;;4953813;29;20034;-73
2023/11/29 03:07:09;;;;;;;6.13;4.17;;;2.20;99.90;;;;;;4953229;29;20053;-74
2023/11/29 03:09:35;;;;;;;10.17;5.07;;;2.20;99.90;;;;;;4953519;29;20024;-73
2023/11/29 03:12:01;;;;;;;6.50;4.30;;;2.20;99.90;;;;;;4953138;29;20074;-74
2023/11/29 03:14:26;;;;;;;10.87;4.80;;;2.20;99.90;;;;;;4953494;29;20065;-73
2023/11/29 03:16:54;;;;;;;8.77;4.37;;;2.20;99.90;;;;;;4953522;29;20027;-73
2023/11/29 03:19:19;;;;;;;8.17;4.17;;;2.20;99.90;;;;;;4953040;29;20034;-73
2023/11/29 03:21:45;;;;;;;10.03;4.20;;;2.20;99.90;;;;;;4952959;29;20051;-74
2023/11/29 03:24:11;;;;;;;8.13;4.53;;;2.20;99.90;;;;;;4954240;29;20408;-74
2023/11/29 03:26:43;;;;;;;8.63;4.60;;;2.10;99.90;;;;;;4953363;29;20143;-74
2023/11/29 03:29:09;;;;;;;9.07;4.40;;;2.10;99.90;;;;;;4952935;29;20122;-73
2023/11/29 03:31:34;;;;;;;9.23;4.63;;;2.10;99.90;;;;;;4953468;29;20137;-74
2023/11/29 03:34:00;;;;;;;7.40;4.07;;;2.10;99.90;;;;;;4954069;29;20480;-73
2023/11/29 03:36:25;;;;;;;6.93;4.20;;;2.10;99.90;;;;;;4953490;29;20024;-74
2023/11/29 03:38:51;;;;;;;8.17;4.57;;;2.10;99.90;;;;;;4953382;29;20468;-74
2023/11/29 03:41:16;;;;;;;8.83;4.40;;;2.10;99.90;;;;;;4953980;29;20369;-74
2023/11/29 03:43:42;;;;;;;10.73;4.80;;;2.00;99.90;;;;;;4953335;29;20032;-73
2023/11/29 03:46:08;;;;;;;7.50;4.33;;;2.00;99.90;;;;;;4952901;28;20027;-73
2023/11/29 03:48:33;;;;;;;9.00;4.20;;;2.00;99.90;;;;;;4958223;29;20317;-73
2023/11/29 03:51:02;;;;;;;8.47;4.07;;;1.90;99.90;;;;;;4956391;29;20027;-74
2023/11/29 03:53:28;;;;;;;9.77;4.63;;;1.90;99.90;;;;;;4958313;28;20063;-74
2023/11/29 03:55:53;;;;;;;8.53;4.53;;;1.90;99.90;;;;;;4956913;29;20031;-73
2023/11/29 03:58:19;;;;;;;9.30;4.23;;;1.90;99.90;;;;;;4957431;29;20030;-74
2023/11/29 04:00:45;;;;;;;10.33;4.93;;;1.90;99.90;;;;;;4956449;29;20528;-74
2023/11/29 04:03:10;;;;;;;11.37;4.80;;;1.90;99.90;;;;;;4957204;29;20039;-73
2023/11/29 04:05:36;;;;;;;9.37;4.83;;;1.90;99.90;;;;;;4957940;29;20027;-74
2023/11/29 04:08:02;;;;;;;9.53;4.90;;;1.80;99.90;;;;;;4956176;29;20023;-74
2023/11/29 04:10:29;;;;;;;7.93;4.23;;;1.90;99.90;;;;;;4956642;29;20065;-74
2023/11/29 04:12:55;;;;;;;10.27;4.83;;;1.90;99.90;;;;;;4957878;28;20023;-74
2023/11/29 04:15:20;;;;;;;8.37;4.27;;;1.90;99.90;;;;;;4956142;29;20054;-73
2023/11/29 04:17:46;;;;;;;9.33;4.13;;;1.90;99.90;;;;;;4957830;28;20158;-73
2023/11/29 04:20:12;;;;;;;9.07;4.50;;;1.90;99.90;;;;;;4955963;29;20381;-74
2023/11/29 04:22:38;;;;;;;9.47;4.40;;;1.90;99.90;;;;;;4955993;29;20480;-74
2023/11/29 04:25:06;;;;;;;8.13;4.23;;;1.90;99.90;;;;;;4956067;29;20104;-73
2023/11/29 04:27:32;;;;;;;8.20;4.20;;;1.90;99.90;;;;;;4957599;28;20027;-73
2023/11/29 04:29:57;;;;;;;8.63;3.90;;;1.90;99.90;;;;;;4957809;29;20031;-73
2023/11/29 04:32:23;;;;;;;8.23;4.40;;;1.90;99.90;;;;;;4957080;29;20031;-74
2023/11/29 04:34:49;;;;;;;7.33;3.73;;;2.00;99.90;;;;;;4957443;28;20026;-73
2023/11/29 04:37:14;;;;;;;9.77;4.10;;;2.00;99.90;;;;;;4955698;29;20027;-74
2023/11/29 04:39:40;;;;;;;7.77;4.00;;;2.00;99.90;;;;;;4957487;29;20108;-73
2023/11/29 04:42:06;;;;;;;7.70;4.13;;;2.00;99.90;;;;;;4956801;29;20024;-73
2023/11/29 04:44:31;;;;;;;9.67;4.30;;;2.00;99.90;;;;;;4956120;29;20503;-73
2023/11/29 04:46:57;;;;;;;8.07;3.80;;;2.00;99.90;;;;;;4955979;29;20027;-73
2023/11/29 04:49:23;;;;;;;7.13;3.80;;;2.00;99.90;;;;;;4955500;29;20034;-73
2023/11/29 04:51:48;;;;;;;7.93;3.97;;;2.00;99.90;;;;;;4957380;29;20043;-73
2023/11/29 04:54:14;;;;;;;7.63;4.00;;;2.10;99.90;;;;;;4955316;29;20032;-73
2023/11/29 04:56:39;;;;;;;7.33;4.00;;;2.00;99.90;;;;;;4955547;29;20035;-73
2023/11/29 04:59:05;;;;;;;6.90;3.47;;;2.10;99.90;;;;;;4955282;28;20027;-74
2023/11/29 05:01:31;;;;;;;9.20;4.10;;;2.10;99.90;;;;;;4955667;29;20035;-74
2023/11/29 05:03:57;;;;;;;10.23;4.03;;;2.10;99.90;;;;;;4956928;29;20031;-73
2023/11/29 05:06:25;;;;;;;7.40;3.70;;;2.10;99.90;;;;;;4956497;29;20027;-74
2023/11/29 05:08:50;;;;;;;6.77;3.77;;;2.10;99.90;;;;;;4955723;29;20031;-73
2023/11/29 05:11:16;;;;;;;7.80;4.07;;;2.10;99.90;;;;;;4955118;29;20031;-74
2023/11/29 05:13:41;;;;;;;6.80;3.47;;;2.20;99.90;;;;;;4956561;29;20043;-73
2023/11/29 05:16:07;;;;;;;7.97;3.73;;;2.20;99.90;;;;;;4956245;29;20103;-74
2023/11/29 05:18:33;;;;;;;5.93;3.60;;;2.20;99.90;;;;;;4955814;29;20046;-73
2023/11/29 05:20:59;;;;;;;6.60;3.60;;;2.20;99.90;;;;;;4956790;29;20117;-73
2023/11/29 05:23:26;;;;;;;8.90;3.77;;;2.20;99.90;;;;;;4938575;29;20134;-74
2023/11/29 05:25:52;;;;;;;6.73;3.07;;;2.30;99.90;;;;;;4920431;29;20469;-73
2023/11/29 05:28:24;;;;;;;8.17;3.83;;;2.30;99.90;;;;;;4936899;29;20024;-73
2023/11/29 05:30:50;;;;;;;6.67;3.50;;;2.30;99.90;;;;;;4920466;29;20032;-73
2023/11/29 05:33:18;;;;;;;7.70;3.13;;;2.40;99.90;;;;;;4919621;29;20165;-74
2023/11/29 05:35:44;;;;;;;8.70;3.47;;;2.40;99.90;;;;;;4920096;29;20032;-73
2023/11/29 05:38:10;;;;;;;7.30;3.53;;;2.40;99.90;;;;;;4919642;29;20054;-74
2023/11/29 05:40:36;;;;;;;6.90;3.43;;;2.40;99.90;;;;;;4937025;29;20450;-73
2023/11/29 05:43:02;;;;;;;9.43;3.60;;;2.40;99.90;;;;;;4920093;29;20126;-73
2023/11/29 05:45:27;;;;;;;8.57;4.43;;;2.40;99.90;;;;;;4936578;29;20449;-73
2023/11/29 05:47:53;;;;;;;5.70;3.20;;;2.40;99.90;;;;;;4936986;29;20023;-73
2023/11/29 05:50:19;;;;;;;6.07;3.40;;;2.40;99.90;;;;;;4936310;29;20030;-73
2023/11/29 05:52:45;;;;;;;6.03;3.50;;;2.40;99.90;;;;;;4919871;29;20171;-74
2023/11/29 05:55:11;;;;;;;7.90;3.67;;;2.40;99.90;;;;;;4936291;29;20458;-74
2023/11/29 05:57:37;;;;;;;8.27;3.40;;;2.40;99.90;;;;;;4919411;29;20042;-73
2023/11/29 06:00:09;;;;;;;9.07;4.43;;;2.40;99.90;;;;;;4919454;29;20032;-74
2023/11/29 06:02:35;;;;;;;5.37;3.23;;;2.40;99.90;;;;;;4936731;29;20036;-73
2023/11/29 06:05:04;;;;;;;7.37;3.37;;;2.40;99.90;;;;;;4936695;29;20042;-73
2023/11/29 06:07:34;;;;;;;6.17;2.97;;;2.40;99.90;;;;;;4936405;29;20030;-73
2023/11/29 06:10:01;;;;;;;5.77;3.40;;;2.40;99.90;;;;;;4919077;29;20470;-73
2023/11/29 06:12:27;;;;;;;6.70;3.70;;;2.40;99.90;;;;;;4919054;29;20032;-73
2023/11/29 06:14:53;;;;;;;4.80;3.00;;;2.40;99.90;;;;;;4919611;29;20032;-73
2023/11/29 06:17:19;;;;;;;6.60;3.20;;;2.50;99.90;;;;;;4919002;29;20122;-74
2023/11/29 06:19:44;;;;;;;4.20;2.47;;;2.50;99.90;;;;;;4936171;29;20036;-74
2023/11/29 06:22:13;;;;;;;5.00;3.10;;;2.50;99.90;;;;;;4929799;29;20475;-74
2023/11/29 06:24:39;;;;;;;6.03;3.07;;;2.50;99.90;;;;;;4954225;29;20039;-73
2023/11/29 06:27:05;;;;;;;5.40;3.03;;;2.40;99.90;;;;;;4954302;29;20034;-73
2023/11/29 06:29:33;;;;;;;3.97;2.50;;;2.40;99.90;;;;;;4953679;29;20034;-73
2023/11/29 06:31:58;;;;;;;4.80;3.00;;;2.40;99.90;;;;;;4954102;29;20036;-73
2023/11/29 06:34:24;;;;;;;5.83;3.07;;;2.40;99.90;;;;;;4954905;29;20042;-73
2023/11/29 06:36:50;;;;;;;4.77;2.60;;;2.40;99.90;;;;;;4954012;29;20483;-74
2023/11/29 06:39:19;;;;;;;4.70;3.10;;;2.50;99.90;;;;;;4953574;29;20035;-74
2023/11/29 06:41:47;;;;;;;5.03;2.70;;;2.50;99.90;;;;;;4955122;28;20031;-74
2023/11/29 06:44:13;;;;;;;5.13;2.40;;;2.50;99.90;;;;;;4953549;29;20050;-74
2023/11/29 06:46:39;;;;;;;5.43;2.93;;;2.50;99.90;;;;;;4955055;28;20059;-74
2023/11/29 06:49:09;;;;;;;4.80;2.60;;;2.50;99.90;;;;;;4953946;29;20045;-73
2023/11/29 06:51:35;;;;;;;4.23;2.27;;;2.60;99.90;;;;;;4955185;28;20027;-74
2023/11/29 06:54:01;;;;;;;6.40;2.57;;;2.60;99.90;;;;;;4953935;29;20362;-73
2023/11/29 06:56:27;;;;;;;4.40;2.60;;;2.60;99.90;;;;;;4953215;29;20031;-74
2023/11/29 06:58:53;;;;;;;5.87;2.90;;;2.60;99.90;;;;;;4953666;29;20031;-73
2023/11/29 07:01:18;;;;;;;4.20;2.60;;;2.60;99.90;;;;;;4953114;29;20122;-73
2023/11/29 07:03:44;;;;;;;5.37;2.53;;;2.60;99.90;;;;;;4953600;29;20388;-73
2023/11/29 07:06:22;;;;;;;4.33;2.50;;;2.60;99.90;;;;;;4953106;29;20038;-75
2023/11/29 07:08:49;;;;;;;3.83;2.33;;;2.60;99.90;;;;;;4954908;28;20117;-73
2023/11/29 07:11:15;;;;;;;5.43;2.87;;;2.60;99.90;;;;;;4952833;29;20090;-74
2023/11/29 07:13:40;;;;;;;6.57;2.80;;;2.60;99.90;;;;;;4953810;29;20031;-74
2023/11/29 07:16:07;;;;;;;3.93;2.50;;;2.70;99.90;;;;;;4953519;29;20027;-74
2023/11/29 07:18:32;;;;;;;5.60;2.70;;;2.70;99.90;;;;;;4952756;29;20031;-73
2023/11/29 07:20:58;;;;;;;5.67;2.90;;;2.70;99.90;;;;;;4953935;28;20038;-74
2023/11/29 07:23:24;;;;;;;5.70;2.50;;;2.70;99.90;;;;;;4952435;29;20055;-73
2023/11/29 07:25:49;;;;;;;4.50;2.77;;;2.70;99.90;;;;;;4953367;29;20039;-73
2023/11/29 07:28:16;;;;;;;6.10;2.60;;;2.70;99.90;;;;;;4954158;29;20110;-74
2023/11/29 07:30:42;;;;;;;4.23;2.50;;;2.70;99.90;;;;;;4953491;29;20031;-73
2023/11/29 07:33:08;;;;;;;5.13;2.60;;;2.70;99.90;;;;;;4954381;28;20440;-73
2023/11/29 07:35:34;;;;;;;4.77;2.40;;;2.70;99.90;;;;;;4952824;29;20024;-73
2023/11/29 07:38:00;;;;;;;4.17;2.50;;;2.70;99.90;;;;;;4953310;29;20051;-74
2023/11/29 07:40:26;;;;;;;4.10;2.40;;;2.70;99.90;;;;;;4954120;28;20031;-73
2023/11/29 07:42:51;;;;;;;5.13;2.97;;;2.70;99.90;;;;;;4954173;29;20046;-74
2023/11/29 07:45:18;;;;;;;4.40;2.70;;;2.70;99.90;;;;;;4952728;29;20027;-73
2023/11/29 07:47:44;;;;;;;6.17;2.83;;;2.70;99.90;;;;;;4953262;29;20436;-73
2023/11/29 07:50:13;;;;;;;4.60;2.90;;;2.70;99.90;;;;;;4953077;29;20024;-74
2023/11/29 07:52:39;;;;;;;5.87;2.83;;;2.80;99.90;;;;;;4953286;29;20063;-73
2023/11/29 07:55:07;;;;;;;5.97;3.00;;;2.80;99.90;;;;;;4953274;29;20020;-73
2023/11/29 07:57:32;;;;;;;5.40;2.70;;;2.80;99.90;;;;;;4954222;29;20465;-73
2023/11/29 07:59:58;;;;;;;4.50;2.50;;;2.90;99.90;;;;;;4954349;28;20104;-73
2023/11/29 08:02:23;;;;;;;4.73;2.17;;;2.90;99.90;;;;;;4953512;29;20050;-74
2023/11/29 08:04:49;;;;;;;4.77;2.90;;;2.90;99.90;;;;;;4954640;29;20096;-73
2023/11/29 08:07:15;;;;;;;4.43;2.37;;;2.80;99.90;;;;;;4952734;29;20382;-73
2023/11/29 08:09:44;;;;;;;4.37;2.67;;;2.70;99.90;;;;;;4953028;29;20027;-73
2023/11/29 08:12:11;;;;;;;6.70;3.03;;;2.60;99.90;;;;;;4954331;28;20178;-73
2023/11/29 08:14:36;;;;;;;6.03;3.20;;;2.50;99.90;;;;;;4952564;29;20023;-74
2023/11/29 08:17:03;;;;;;;5.40;3.10;;;2.50;99.90;;;;;;4952878;29;20404;-73
2023/11/29 08:19:28;;;;;;;7.80;3.33;;;2.40;99.90;;;;;;4953998;28;20102;-73
2023/11/29 08:21:54;;;;;;;8.50;3.10;;;2.40;99.90;;;;;;4952435;29;20468;-73
2023/11/29 08:24:20;;;;;;;7.20;4.10;;;2.40;99.90;;;;;;4952640;29;20038;-74
2023/11/29 08:26:46;;;;;;;3.57;2.63;;;2.40;99.90;;;;;;4953130;29;20472;-73
2023/11/29 08:29:12;;;;;;;5.20;3.17;;;2.40;99.90;;;;;;4954137;28;20087;-73
2023/11/29 08:31:37;;;;;;;4.40;2.77;;;2.40;99.90;;;;;;4952363;29;20031;-74
2023/11/29 08:34:03;;;;;;;5.17;3.10;;;2.40;99.90;;;;;;4956840;28;20031;-73
2023/11/29 08:36:29;;;;;;;7.07;3.53;;;2.50;99.90;;;;;;4956963;29;20027;-74
2023/11/29 08:38:56;;;;;;;5.60;3.20;;;2.60;99.90;;;;;;4956107;29;20078;-73
2023/11/29 08:41:21;;;;;;;6.97;3.30;;;2.60;99.90;;;;;;4955544;29;20130;-75
2023/11/29 08:43:47;;;;;;;7.80;3.80;;;2.60;99.90;;;;;;4957201;29;20059;-74
2023/11/29 08:46:14;;;;;;;6.10;3.27;;;2.60;99.90;;;;;;4955991;29;20516;-74
2023/11/29 08:48:39;;;;;;;5.70;3.00;;;2.60;99.90;;;;;;4955262;29;20027;-73
2023/11/29 08:51:06;;;;;;;6.40;3.00;;;2.60;99.90;;;;;;4957195;29;20101;-73
2023/11/29 08:53:32;;;;;;;5.50;3.13;;;2.60;99.90;;;;;;4955448;29;20035;-73
2023/11/29 08:55:57;;;;;;;4.93;3.03;;;2.70;99.90;;;;;;4956990;29;20023;-73
2023/11/29 08:58:24;;;;;;;5.90;2.50;;;2.70;99.90;;;;;;4956311;29;20039;-72
2023/11/29 09:00:50;;;;;;;5.40;3.10;;;2.70;99.90;;;;;;4955587;29;20031;-74
2023/11/29 09:03:15;;;;;;;5.93;2.70;;;2.80;99.90;;;;;;4955171;29;20039;-81
2023/11/29 09:05:41;;;;;;;4.50;2.63;;;2.80;99.90;;;;;;4955579;29;20037;-73
2023/11/29 09:08:07;;;;;;;4.43;2.40;;;2.80;99.90;;;;;;4955519;29;20035;-73
2023/11/29 09:10:33;;;;;;;5.50;2.93;;;2.80;99.90;;;;;;4955098;29;20053;-73
2023/11/29 09:12:59;;;;;;;4.63;2.67;;;2.90;99.90;;;;;;4955372;29;20027;-73
2023/11/29 09:15:25;;;;;;;4.40;2.60;;;2.90;99.90;;;;;;4954913;29;20432;-73
2023/11/29 09:17:51;;;;;;;3.40;2.10;;;2.90;99.90;;;;;;4955386;29;20031;-73
2023/11/29 09:20:16;;;;;;;3.97;2.57;;;2.90;99.90;;;;;;4954818;29;20027;-75
2023/11/29 09:22:42;;;;;;;3.30;2.37;;;3.00;99.90;;;;;;4944423;29;20107;-73
2023/11/29 09:25:08;;;;;;;4.03;2.67;;;3.10;99.90;;;;;;4937287;29;20028;-72
2023/11/29 09:27:33;;;;;;;4.73;2.53;;;3.10;99.90;;;;;;4919483;29;20492;-72
2023/11/29 09:30:00;;;;;;;4.33;2.40;;;3.10;99.90;;;;;;4920085;29;20525;-72
2023/11/29 09:32:26;;;;;;;4.40;2.60;;;3.20;99.90;;;;;;4919871;29;20036;-72
2023/11/29 09:34:51;;;;;;;4.97;2.87;;;3.30;99.90;;;;;;4920199;29;20091;-73
2023/11/29 09:37:17;;;;;;;5.43;2.63;;;3.40;99.90;;;;;;4936782;29;20378;-77
2023/11/29 09:39:43;;;;;;;4.50;2.50;;;3.40;99.90;;;;;;4920392;29;20028;-72
2023/11/29 09:42:09;;;;;;;3.77;2.30;;;3.40;99.90;;;;;;4919969;29;20032;-72
2023/11/29 09:44:39;;;;;;;4.03;2.50;;;3.50;99.90;;;;;;4918639;29;20036;-72
2023/11/29 09:47:05;;;;;;;3.53;2.23;;;3.50;99.90;;;;;;4919909;29;20055;-72
2023/11/29 09:49:31;;;;;;;3.70;2.60;;;3.40;99.90;;;;;;4919488;29;20122;-72
2023/11/29 09:51:57;;;;;;;3.63;2.27;;;3.40;99.90;;;;;;4937002;29;20031;-72
2023/11/29 09:54:24;;;;;;;4.37;2.43;;;3.50;99.90;;;;;;4919298;29;20035;-72
2023/11/29 09:56:50;;;;;;;8.30;2.60;;;3.60;99.90;;;;;;4919968;29;20067;-72
2023/11/29 09:59:17;;;;;;;5.43;2.70;;;3.60;99.90;;;;;;4919704;29;20059;-72
2023/11/29 10:01:46;;;;;;;4.83;2.57;;;3.60;99.90;;;;;;4936483;29;20035;-72
2023/11/29 10:04:12;;;;;;;3.83;2.20;;;3.60;99.90;;;;;;4919683;29;20040;-72
2023/11/29 10:06:38;;;;;;;2.80;2.10;;;3.60;99.90;;;;;;4919064;29;20050;-73
2023/11/29 10:09:13;;;;;;;3.73;2.30;;;3.60;99.90;;;;;;4919834;29;20028;-72
2023/11/29 10:11:43;;;;;;;4.40;2.20;;;3.60;99.90;;;;;;4919139;29;20207;-72
2023/11/29 10:14:10;;;;;;;4.73;2.50;;;3.60;99.90;;;;;;4919458;29;20487;-72
2023/11/29 10:16:36;;;;;;;3.93;2.33;;;3.50;99.90;;;;;;4936385;29;20358;-72
2023/11/29 10:19:12;;;;;;;4.77;2.47;;;3.50;99.90;;;;;;4919319;29;20035;-72
2023/11/29 10:21:41;;;;;;;5.80;2.60;;;3.50;99.90;;;;;;4935389;29;20485;-72
2023/11/29 10:24:07;;;;;;;4.37;2.50;;;3.40;99.90;;;;;;4919329;29;20032;-72
2023/11/29 10:26:32;;;;;;;3.50;2.50;;;3.40;99.90;;;;;;4918489;29;20140;-72
2023/11/29 10:28:58;;;;;;;10.23;2.47;;;3.40;99.90;;;;;;4919203;29;20024;-72
2023/11/29 10:31:25;;;;;;;6.23;2.70;;;3.40;99.90;;;;;;4918840;29;20031;-72
2023/11/29 10:33:51;;;;;;;3.23;2.60;;;3.40;99.90;;;;;;4919209;29;20031;-72
2023/11/29 10:36:18;;;;;;;5.40;2.63;;;3.40;99.90;;;;;;4919074;29;20028;-72
2023/11/29 10:38:54;;;;;;;3.77;2.30;;;3.40;99.90;;;;;;4918604;29;20028;-72
2023/11/29 10:41:23;;;;;;;4.17;2.57;;;3.40;99.90;;;;;;4919102;29;20028;-72
2023/11/29 10:43:50;;;;;;;6.70;2.83;;;3.50;99.90;;;;;;4936043;29;20032;-72
2023/11/29 10:46:22;;;;;;;3.43;2.30;;;3.50;99.90;;;;;;4919039;29;20512;-71
2023/11/29 10:48:50;;;;;;;;;;;3.50;99.90;;;;;;4936401;29;20024;-72
2023/11/29 10:51:18;;;;;;;3.80;2.53;;;3.60;99.90;;;;;;4918658;29;19932;-71
2023/11/29 10:53:45;;;;;;;3.63;2.23;;;3.60;99.90;;;;;;4935418;29;20115;-71
2023/11/29 10:56:12;;;;;;;3.83;2.43;;;3.60;99.90;;;;;;4918732;29;20397;-72
2023/11/29 10:58:56;;;;;;;3.37;2.20;;;3.70;99.90;;;;;;4918280;29;20056;-73
2023/11/29 11:01:36;;;;;;;3.67;2.57;;;3.70;99.90;;;;;;4918461;29;20039;-78
2023/11/29 11:04:03;;;;;;;2.97;2.20;;;3.80;99.90;;;;;;4918661;29;20122;-73
2023/11/29 11:06:29;;;;;;;3.37;2.00;;;4.10;99.90;;;;;;4935227;29;20028;-73
2023/11/29 11:08:56;;;;;;;4.23;2.10;;;4.20;99.90;;;;;;4935616;29;20028;-73
2023/11/29 11:11:43;;;;;;;3.00;2.03;;;4.20;99.90;;;;;;4935640;29;20070;-73
2023/11/29 11:14:29;;;;;;;3.77;2.00;;;4.30;99.90;;;;;;4918752;29;20024;-73
2023/11/29 11:17:14;;;;;;;4.70;2.10;;;4.40;99.90;;;;;;4935701;29;20020;-73
2023/11/29 11:19:42;;;;;;;3.07;2.10;;;4.50;99.90;;;;;;4918144;29;20469;-73
2023/11/29 11:22:11;;;;;;;4.40;2.20;;;4.60;99.90;;;;;;4928841;29;20055;-73
2023/11/29 11:25:10;;;;;;;4.53;1.93;;;4.60;99.90;;;;;;4947455;28;20031;-74
2023/11/29 11:27:38;;;;;;;3.93;1.90;;;4.60;99.90;;;;;;4952547;29;20114;-74
2023/11/29 11:30:13;;;;;;;3.70;2.00;;;4.70;99.90;;;;;;4943814;29;20028;-73
2023/11/29 11:32:40;;;;;;;3.57;2.10;;;4.70;99.90;;;;;;4942866;29;20096;-75
2023/11/29 11:37:48;;;;;;;2.63;2.17;;;4.60;99.90;;;;;;4953334;29;20264;-73
2023/11/29 11:40:15;;;;;;;3.73;2.00;;;4.50;99.90;;;;;;4952791;29;20027;-73
2023/11/29 11:42:41;;;;;;;3.13;1.80;;;4.50;99.90;;;;;;4952192;29;20126;-73
2023/11/29 11:45:08;;;;;;;2.40;2.17;;;4.60;99.90;;;;;;4953915;28;20032;-73
2023/11/29 11:47:33;;;;;;;3.23;2.10;;;4.80;99.90;;;;;;4952288;29;20027;-73
2023/11/29 11:49:59;;;;;;;4.17;2.07;;;5.00;99.90;;;;;;4954253;29;20027;-73
2023/11/29 11:52:28;;;;;;;3.47;2.10;;;5.20;99.90;;;;;;4953303;29;20031;-74
2023/11/29 11:54:53;;;;;;;4.10;2.03;;;5.20;99.90;;;;;;4953275;29;20436;-72
2023/11/29 11:57:19;;;;;;;3.10;2.00;;;5.10;99.90;;;;;;4954113;29;20114;-73
2023/11/29 11:59:44;;;;;;;2.90;2.17;;;5.00;99.90;;;;;;4953625;29;20388;-73
2023/11/29 12:02:11;;;;;;;5.83;2.80;;;4.90;99.90;;;;;;4952542;29;20392;-72
2023/11/29 12:04:36;;;;;;;3.40;2.10;;;4.90;99.90;;;;;;4952928;28;20034;-73
2023/11/29 12:07:07;;;;;;;2.80;2.00;;;4.90;99.90;;;;;;4952511;28;20039;-73
2023/11/29 12:09:34;;;;;;;3.87;2.13;;;4.90;99.90;;;;;;4957389;28;20032;-73
2023/11/29 12:12:07;;;;;;;4.77;2.23;;;5.00;99.90;;;;;;4956218;29;20028;-73
2023/11/29 12:14:33;;;;;;;2.67;1.80;;;4.90;99.90;;;;;;4955769;29;20061;-73
2023/11/29 12:16:58;;;;;;;3.17;1.90;;;4.90;99.90;;;;;;4955761;29;20484;-73
2023/11/29 12:19:24;;;;;;;5.33;1.80;;;4.90;99.90;;;;;;4955792;29;20122;-79
2023/11/29 12:21:50;;;;;;;4.73;2.03;;;4.90;99.90;;;;;;4950415;28;20060;-73
2023/11/29 12:24:16;;;;;;;2.83;1.87;;;5.00;99.90;;;;;;4937859;29;20462;-73
2023/11/29 12:26:41;;;;;;;2.53;1.50;;;5.00;99.90;;;;;;4920490;29;20054;-73
2023/11/29 12:29:08;;;;;;;4.10;2.10;;;5.00;99.90;;;;;;4920754;29;20343;-73
2023/11/29 12:31:37;;;;;;;3.70;2.17;;;5.00;99.90;;;;;;4920442;29;20126;-73
2023/11/29 12:34:04;;;;;;;2.43;1.90;;;5.00;99.90;;;;;;4905494;29;20027;-72
2023/11/29 12:36:30;;;;;;;4.03;1.90;;;4.90;99.90;;;;;;4920386;29;20032;-73
2023/11/29 12:39:00;;;;;;;3.57;2.13;;;4.80;99.90;;;;;;4924148;29;20035;-73
2023/11/29 12:41:25;;;;;;;3.43;2.40;;;4.60;99.90;;;;;;4937156;29;20039;-77
2023/11/29 12:43:51;;;;;;;4.17;2.23;;;4.60;99.90;;;;;;4921911;29;20057;-73
2023/11/29 12:46:16;;;;;;;4.93;2.60;;;4.50;99.90;;;;;;4934265;29;20107;-73
2023/11/29 12:48:42;;;;;;;3.83;2.30;;;4.40;99.90;;;;;;4920009;29;20385;-73
2023/11/29 12:51:13;;;;;;;4.17;2.23;;;4.40;99.90;;;;;;4920148;29;20039;-76
2023/11/29 12:53:39;;;;;;;3.15;2.10;;;4.30;99.90;;;;;;4926576;29;20032;-73
2023/11/29 12:56:06;;;;;;;4.13;2.07;;;4.30;99.90;;;;;;4937641;29;20154;-73
2023/11/29 12:58:32;;;;;;;3.83;2.10;;;4.40;99.90;;;;;;4937004;29;20070;-73